createdAt,value
2022-11-13T00:00:52.210Z,14.80
2022-11-13T00:01:52.192Z,14.60
2022-11-13T00:02:52.216Z,15.60
2022-11-13T00:03:52.150Z,14.50
2022-11-13T00:04:52.128Z,15.00
2022-11-13T00:05:52.107Z,15.50
2022-11-13T00:06:57.790Z,14.70
2022-11-13T00:07:52.069Z,14.60
2022-11-13T00:08:52.040Z,14.90
2022-11-13T00:09:52.028Z,13.60
2022-11-13T00:10:51.998Z,14.40
2022-11-13T00:11:51.981Z,14.90
2022-11-13T00:12:51.975Z,14.60
2022-11-13T00:13:51.936Z,14.00
2022-11-13T00:14:51.914Z,13.50
2022-11-13T00:15:51.896Z,14.00
2022-11-13T00:16:51.873Z,14.00
2022-11-13T00:17:51.856Z,13.50
2022-11-13T00:18:51.836Z,13.50
2022-11-13T00:19:51.812Z,14.50
2022-11-13T00:20:51.792Z,14.40
2022-11-13T00:21:51.771Z,15.00
2022-11-13T00:22:51.861Z,14.10
2022-11-13T00:23:51.754Z,13.80
2022-11-13T00:24:51.708Z,14.30
2022-11-13T00:25:51.693Z,13.50
2022-11-13T00:26:51.664Z,14.00
2022-11-13T00:27:51.647Z,13.80
2022-11-13T00:28:51.624Z,14.30
2022-11-13T00:29:51.602Z,14.10
2022-11-13T00:30:51.580Z,14.20
2022-11-13T00:31:51.565Z,13.50
2022-11-13T00:32:51.545Z,13.70
2022-11-13T00:34:51.498Z,13.60
2022-11-13T00:35:51.476Z,13.30
2022-11-13T00:36:51.451Z,13.60
2022-11-13T00:37:51.436Z,13.90
2022-11-13T00:38:51.524Z,13.60
2022-11-13T00:39:54.501Z,13.20
2022-11-13T00:40:51.373Z,13.70
2022-11-13T00:41:51.354Z,13.10
2022-11-13T00:42:51.327Z,14.00
2022-11-13T00:43:51.306Z,13.10
2022-11-13T00:44:51.290Z,12.80
2022-11-13T00:45:51.268Z,13.50
2022-11-13T00:46:51.245Z,13.20
2022-11-13T00:47:51.222Z,13.00
2022-11-13T00:48:51.200Z,13.40
2022-11-13T00:49:51.181Z,14.20
2022-11-13T00:50:51.158Z,13.30
2022-11-13T00:51:51.147Z,12.90
2022-11-13T00:52:51.120Z,13.00
2022-11-13T00:53:51.094Z,13.60
2022-11-13T00:54:51.191Z,13.50
2022-11-13T00:55:51.053Z,13.50
2022-11-13T00:56:51.031Z,13.30
2022-11-13T00:57:51.010Z,13.30
2022-11-13T00:58:50.989Z,13.80
2022-11-13T00:59:50.969Z,13.80
2022-11-13T01:00:50.955Z,13.60
2022-11-13T01:01:50.973Z,13.10
2022-11-13T01:02:50.906Z,13.10
2022-11-13T01:03:50.886Z,13.40
2022-11-13T01:04:50.867Z,13.10
2022-11-13T01:05:50.841Z,14.00
2022-11-13T01:06:50.915Z,13.20
2022-11-13T01:07:50.803Z,13.40
2022-11-13T01:08:50.776Z,13.60
2022-11-13T01:09:50.756Z,12.70
2022-11-13T01:10:53.690Z,13.60
2022-11-13T01:11:50.713Z,13.60
2022-11-13T01:12:50.694Z,13.30
2022-11-13T01:13:50.677Z,12.90
2022-11-13T01:14:50.649Z,13.10
2022-11-13T01:15:50.632Z,13.20
2022-11-13T01:16:50.608Z,13.30
2022-11-13T01:17:50.590Z,13.20
2022-11-13T01:18:50.564Z,13.40
2022-11-13T01:19:50.546Z,13.40
2022-11-13T01:20:50.531Z,12.30
2022-11-13T01:21:50.505Z,12.90
2022-11-13T01:22:50.479Z,13.10
2022-11-13T01:23:50.466Z,12.90
2022-11-13T01:24:50.447Z,14.10
2022-11-13T01:25:50.418Z,13.20
2022-11-13T01:26:50.507Z,12.90
2022-11-13T01:27:50.373Z,13.00
2022-11-13T01:28:50.356Z,13.20
2022-11-13T01:29:50.336Z,12.60
2022-11-13T01:30:50.319Z,12.50
2022-11-13T01:31:50.291Z,12.40
2022-11-13T01:32:50.270Z,12.20
2022-11-13T01:33:50.251Z,12.60
2022-11-13T01:34:50.228Z,12.70
2022-11-13T01:35:50.211Z,13.10
2022-11-13T01:36:50.186Z,12.40
2022-11-13T01:37:50.164Z,12.50
2022-11-13T01:38:50.144Z,12.90
2022-11-13T01:39:50.120Z,12.60
2022-11-13T01:40:50.099Z,13.10
2022-11-13T01:41:50.083Z,13.10
2022-11-13T01:42:50.179Z,13.10
2022-11-13T01:43:50.042Z,13.10
2022-11-13T01:44:50.016Z,12.60
2022-11-13T01:45:49.997Z,13.20
2022-11-13T01:46:49.977Z,12.80
2022-11-13T01:47:49.955Z,12.60
2022-11-13T01:48:49.932Z,12.80
2022-11-13T01:49:49.910Z,13.10
2022-11-13T01:50:49.888Z,13.10
2022-11-13T01:51:49.868Z,12.60
2022-11-13T01:52:49.858Z,11.90
2022-11-13T01:53:49.826Z,13.10
2022-11-13T01:54:49.803Z,12.90
2022-11-13T01:55:49.780Z,12.50
2022-11-13T01:56:49.758Z,12.90
2022-11-13T01:57:49.740Z,12.00
2022-11-13T01:58:49.838Z,12.80
2022-11-13T01:59:49.696Z,13.60
2022-11-13T02:00:49.675Z,12.80
2022-11-13T02:01:49.695Z,12.70
2022-11-13T02:02:49.632Z,12.50
2022-11-13T02:03:49.608Z,12.50
2022-11-13T02:04:49.594Z,11.80
2022-11-13T02:05:49.573Z,12.90
2022-11-13T02:06:49.612Z,13.10
2022-11-13T02:07:49.524Z,12.60
2022-11-13T02:08:49.507Z,12.60
2022-11-13T02:09:49.484Z,12.90
2022-11-13T02:10:49.462Z,12.10
2022-11-13T02:11:49.443Z,12.70
2022-11-13T02:12:49.421Z,12.20
2022-11-13T02:13:49.397Z,12.50
2022-11-13T02:14:49.494Z,11.80
2022-11-13T02:15:49.355Z,12.00
2022-11-13T02:16:49.334Z,12.20
2022-11-13T02:17:49.313Z,12.30
2022-11-13T02:18:49.291Z,12.40
2022-11-13T02:19:49.279Z,11.70
2022-11-13T02:20:49.252Z,12.00
2022-11-13T02:21:49.233Z,12.10
2022-11-13T02:22:49.205Z,12.20
2022-11-13T02:23:49.186Z,12.20
2022-11-13T02:24:54.518Z,12.30
2022-11-13T02:25:49.142Z,11.50
2022-11-13T02:26:49.121Z,12.10
2022-11-13T02:27:49.098Z,11.70
2022-11-13T02:28:49.077Z,11.80
2022-11-13T02:29:49.056Z,11.50
2022-11-13T02:30:49.153Z,11.90
2022-11-13T02:31:49.015Z,12.80
2022-11-13T02:32:48.999Z,12.00
2022-11-13T02:33:48.970Z,11.90
2022-11-13T02:34:48.951Z,12.50
2022-11-13T02:35:48.928Z,12.40
2022-11-13T02:36:48.902Z,12.60
2022-11-13T02:37:48.887Z,12.10
2022-11-13T02:38:48.864Z,12.60
2022-11-13T02:39:48.848Z,12.00
2022-11-13T02:40:48.822Z,12.00
2022-11-13T02:41:48.803Z,12.50
2022-11-13T02:42:48.776Z,11.50
2022-11-13T02:43:48.761Z,12.60
2022-11-13T02:44:48.735Z,12.60
2022-11-13T02:45:48.716Z,12.30
2022-11-13T02:46:48.813Z,12.20
2022-11-13T02:47:48.682Z,12.00
2022-11-13T02:48:48.651Z,12.30
2022-11-13T02:49:48.626Z,11.80
2022-11-13T02:50:48.607Z,12.30
2022-11-13T02:51:48.587Z,11.90
2022-11-13T02:52:48.726Z,11.30
2022-11-13T02:53:48.544Z,12.00
2022-11-13T02:54:48.523Z,11.80
2022-11-13T02:55:48.501Z,11.80
2022-11-13T02:56:48.479Z,12.30
2022-11-13T02:57:48.459Z,12.30
2022-11-13T02:58:48.433Z,11.90
2022-11-13T02:59:48.418Z,11.80
2022-11-13T03:00:48.389Z,11.90
2022-11-13T03:01:48.404Z,12.00
2022-11-13T03:02:48.470Z,12.00
2022-11-13T03:03:57.480Z,11.70
2022-11-13T03:05:11.519Z,11.50
2022-11-13T03:05:48.287Z,11.90
2022-11-13T03:06:48.324Z,11.50
2022-11-13T03:07:48.241Z,11.60
2022-11-13T03:08:48.229Z,12.10
2022-11-13T03:09:48.202Z,11.60
2022-11-13T03:10:48.176Z,12.00
2022-11-13T03:11:48.154Z,12.10
2022-11-13T03:12:48.137Z,11.50
2022-11-13T03:13:48.118Z,11.40
2022-11-13T03:14:48.092Z,11.70
2022-11-13T03:15:48.070Z,11.90
2022-11-13T03:16:48.051Z,11.30
2022-11-13T03:17:48.030Z,12.00
2022-11-13T03:18:48.118Z,11.60
2022-11-13T03:19:47.981Z,11.80
2022-11-13T03:20:47.961Z,12.30
2022-11-13T03:21:47.940Z,11.50
2022-11-13T03:22:47.918Z,11.50
2022-11-13T03:23:47.900Z,12.20
2022-11-13T03:24:47.876Z,11.90
2022-11-13T03:25:47.853Z,12.30
2022-11-13T03:26:47.831Z,12.00
2022-11-13T03:27:47.816Z,12.00
2022-11-13T03:28:47.789Z,11.70
2022-11-13T03:29:47.772Z,12.00
2022-11-13T03:30:47.753Z,11.50
2022-11-13T03:31:47.725Z,12.10
2022-11-13T03:32:47.703Z,12.00
2022-11-13T03:33:47.684Z,11.90
2022-11-13T03:34:47.773Z,12.10
2022-11-13T03:35:47.638Z,11.80
2022-11-13T03:36:47.620Z,11.40
2022-11-13T03:37:47.597Z,11.80
2022-11-13T03:38:47.568Z,11.10
2022-11-13T03:39:47.558Z,11.50
2022-11-13T03:40:47.533Z,12.20
2022-11-13T03:41:47.513Z,12.10
2022-11-13T03:42:47.486Z,11.10
2022-11-13T03:43:47.466Z,12.10
2022-11-13T03:44:47.444Z,11.30
2022-11-13T03:45:47.421Z,11.60
2022-11-13T03:46:47.399Z,11.80
2022-11-13T03:47:47.379Z,11.50
2022-11-13T03:48:47.355Z,11.30
2022-11-13T03:49:47.335Z,10.70
2022-11-13T03:50:47.425Z,11.70
2022-11-13T03:51:47.294Z,11.30
2022-11-13T03:52:47.273Z,12.30
2022-11-13T03:53:47.249Z,11.80
2022-11-13T03:54:47.228Z,10.90
2022-11-13T03:55:47.202Z,11.30
2022-11-13T03:56:47.184Z,10.30
2022-11-13T03:57:47.159Z,11.10
2022-11-13T03:58:49.705Z,11.10
2022-11-13T03:59:47.119Z,11.00
2022-11-13T04:00:47.092Z,11.50
2022-11-13T04:01:47.133Z,11.20
2022-11-13T04:02:47.049Z,10.90
2022-11-13T04:03:47.029Z,10.90
2022-11-13T04:04:47.006Z,11.10
2022-11-13T04:05:46.986Z,11.50
2022-11-13T04:06:47.141Z,12.10
2022-11-13T04:07:46.945Z,11.80
2022-11-13T04:08:46.919Z,11.40
2022-11-13T04:09:46.902Z,10.90
2022-11-13T04:10:46.878Z,11.50
2022-11-13T04:11:46.854Z,10.90
2022-11-13T04:12:46.839Z,11.50
2022-11-13T04:13:46.812Z,11.60
2022-11-13T04:14:46.790Z,11.60
2022-11-13T04:15:46.768Z,11.00
2022-11-13T04:16:46.748Z,11.40
2022-11-13T04:17:46.721Z,11.30
2022-11-13T04:18:46.707Z,11.10
2022-11-13T04:19:46.682Z,10.80
2022-11-13T04:20:46.662Z,11.30
2022-11-13T04:21:46.640Z,11.10
2022-11-13T04:22:46.730Z,11.50
2022-11-13T04:23:46.594Z,11.20
2022-11-13T04:24:46.574Z,11.40
2022-11-13T04:25:46.556Z,10.70
2022-11-13T04:26:46.532Z,10.40
2022-11-13T04:27:46.509Z,10.60
2022-11-13T04:28:46.485Z,11.10
2022-11-13T04:29:46.466Z,10.70
2022-11-13T04:30:46.458Z,11.20
2022-11-13T04:31:46.421Z,11.20
2022-11-13T04:32:46.394Z,11.50
2022-11-13T04:33:46.376Z,11.30
2022-11-13T04:34:46.355Z,11.50
2022-11-13T04:35:46.331Z,11.30
2022-11-13T04:36:46.308Z,11.30
2022-11-13T04:37:46.289Z,11.30
2022-11-13T04:38:46.375Z,11.00
2022-11-13T04:39:46.240Z,10.80
2022-11-13T04:40:46.218Z,10.80
2022-11-13T04:41:48.955Z,10.90
2022-11-13T04:42:46.179Z,11.10
2022-11-13T04:43:46.153Z,11.10
2022-11-13T04:44:46.143Z,10.30
2022-11-13T04:45:46.114Z,10.80
2022-11-13T04:46:46.090Z,10.90
2022-11-13T04:47:46.066Z,11.30
2022-11-13T04:48:46.045Z,10.70
2022-11-13T04:49:46.024Z,10.70
2022-11-13T04:50:46.000Z,11.50
2022-11-13T04:51:45.978Z,11.20
2022-11-13T04:52:45.954Z,10.70
2022-11-13T04:53:45.937Z,10.90
2022-11-13T04:54:46.027Z,11.60
2022-11-13T04:55:45.890Z,10.60
2022-11-13T04:56:45.866Z,10.80
2022-11-13T04:57:45.848Z,10.90
2022-11-13T04:58:45.825Z,11.40
2022-11-13T04:59:45.801Z,11.30
2022-11-13T05:00:45.782Z,11.70
2022-11-13T05:01:45.787Z,10.80
2022-11-13T05:02:45.741Z,11.40
2022-11-13T05:03:45.720Z,11.30
2022-11-13T05:04:45.692Z,10.60
2022-11-13T05:05:45.672Z,11.40
2022-11-13T05:06:45.747Z,11.40
2022-11-13T05:07:45.627Z,10.40
2022-11-13T05:08:45.605Z,10.90
2022-11-13T05:09:45.581Z,10.60
2022-11-13T05:10:45.672Z,11.00
2022-11-13T05:11:45.539Z,11.30
2022-11-13T05:12:45.518Z,10.30
2022-11-13T05:13:45.502Z,10.90
2022-11-13T05:14:45.474Z,11.00
2022-11-13T05:15:45.454Z,11.10
2022-11-13T05:16:45.428Z,10.40
2022-11-13T05:17:45.408Z,11.20
2022-11-13T05:18:45.385Z,10.80
2022-11-13T05:19:45.365Z,10.30
2022-11-13T05:20:45.339Z,10.80
2022-11-13T05:21:45.325Z,10.90
2022-11-13T05:22:45.302Z,11.40
2022-11-13T05:23:45.275Z,11.20
2022-11-13T05:24:45.256Z,11.30
2022-11-13T05:25:45.232Z,11.50
2022-11-13T05:26:45.320Z,11.10
2022-11-13T05:27:45.185Z,11.50
2022-11-13T05:28:45.162Z,10.80
2022-11-13T05:29:45.140Z,10.80
2022-11-13T05:30:45.115Z,10.80
2022-11-13T05:31:45.095Z,11.40
2022-11-13T05:32:45.071Z,10.90
2022-11-13T05:33:45.050Z,11.20
2022-11-13T05:34:45.026Z,10.60
2022-11-13T05:35:45.007Z,11.20
2022-11-13T05:36:44.982Z,10.70
2022-11-13T05:37:44.966Z,11.00
2022-11-13T05:38:44.940Z,10.60
2022-11-13T05:39:44.916Z,11.40
2022-11-13T05:40:44.891Z,11.10
2022-11-13T05:41:44.871Z,10.90
2022-11-13T05:42:44.967Z,11.10
2022-11-13T05:43:44.826Z,10.70
2022-11-13T05:44:44.805Z,11.00
2022-11-13T05:45:44.785Z,11.40
2022-11-13T05:46:44.758Z,10.90
2022-11-13T05:47:44.742Z,11.00
2022-11-13T05:48:44.715Z,10.80
2022-11-13T05:49:44.698Z,10.70
2022-11-13T05:50:44.670Z,10.00
2022-11-13T05:51:44.651Z,11.10
2022-11-13T05:52:44.625Z,10.90
2022-11-13T05:53:44.609Z,10.80
2022-11-13T05:54:44.582Z,10.80
2022-11-13T05:55:44.565Z,10.70
2022-11-13T05:56:44.539Z,11.10
2022-11-13T05:57:44.519Z,11.40
2022-11-13T05:58:44.610Z,10.70
2022-11-13T05:59:44.475Z,10.60
2022-11-13T06:00:44.449Z,11.00
2022-11-13T06:01:44.485Z,10.50
2022-11-13T06:02:44.410Z,10.60
2022-11-13T06:03:44.383Z,11.00
2022-11-13T06:04:44.362Z,10.90
2022-11-13T06:05:44.344Z,11.10
2022-11-13T06:06:44.368Z,10.80
2022-11-13T06:07:44.301Z,10.60
2022-11-13T06:08:44.274Z,11.30
2022-11-13T06:09:44.249Z,10.10
2022-11-13T06:10:44.227Z,11.20
2022-11-13T06:11:44.216Z,10.70
2022-11-13T06:12:44.184Z,11.10
2022-11-13T06:13:44.164Z,10.50
2022-11-13T06:14:44.256Z,10.60
2022-11-13T06:15:44.117Z,10.50
2022-11-13T06:16:44.096Z,10.10
2022-11-13T06:17:44.076Z,10.60
2022-11-13T06:18:44.048Z,10.70
2022-11-13T06:19:44.029Z,10.40
2022-11-13T06:20:44.007Z,11.00
2022-11-13T06:21:43.981Z,11.10
2022-11-13T06:22:43.956Z,11.00
2022-11-13T06:23:43.937Z,10.50
2022-11-13T06:24:43.914Z,11.00
2022-11-13T06:25:43.890Z,9.60
2022-11-13T06:26:43.865Z,9.90
2022-11-13T06:27:43.849Z,9.60
2022-11-13T06:28:43.831Z,10.40
2022-11-13T06:29:43.802Z,10.70
2022-11-13T06:30:43.896Z,10.90
2022-11-13T06:31:43.759Z,9.80
2022-11-13T06:32:43.736Z,10.70
2022-11-13T06:33:43.716Z,10.50
2022-11-13T06:34:43.689Z,10.20
2022-11-13T06:35:43.669Z,10.30
2022-11-13T06:36:43.650Z,10.60
2022-11-13T06:37:43.624Z,9.80
2022-11-13T06:38:43.663Z,10.30
2022-11-13T06:39:43.582Z,10.10
2022-11-13T06:40:43.554Z,9.70
2022-11-13T06:41:43.540Z,10.00
2022-11-13T06:42:43.510Z,10.10
2022-11-13T06:43:43.495Z,9.90
2022-11-13T06:44:43.470Z,10.50
2022-11-13T06:45:43.448Z,9.70
2022-11-13T06:46:43.536Z,9.20
2022-11-13T06:47:43.405Z,10.00
2022-11-13T06:48:43.379Z,10.10
2022-11-13T06:49:43.360Z,10.00
2022-11-13T06:50:48.110Z,10.40
2022-11-13T06:51:43.313Z,9.70
2022-11-13T06:52:43.291Z,9.70
2022-11-13T06:53:43.268Z,10.00
2022-11-13T06:54:43.249Z,9.40
2022-11-13T06:55:43.228Z,9.80
2022-11-13T06:56:43.204Z,10.20
2022-11-13T06:57:43.178Z,11.00
2022-11-13T06:58:43.153Z,10.10
2022-11-13T06:59:43.136Z,9.80
2022-11-13T07:00:43.172Z,9.70
2022-11-13T07:01:43.089Z,9.50
2022-11-13T07:02:43.182Z,9.70
2022-11-13T07:03:43.050Z,9.80
2022-11-13T07:04:43.024Z,9.60
2022-11-13T07:05:42.999Z,9.80
2022-11-13T07:06:43.034Z,9.70
2022-11-13T07:07:42.960Z,9.70
2022-11-13T07:08:42.934Z,9.90
2022-11-13T07:09:42.915Z,9.20
2022-11-13T07:10:42.888Z,9.50
2022-11-13T07:11:42.870Z,9.30
2022-11-13T07:12:42.844Z,9.40
2022-11-13T07:13:42.825Z,9.90
2022-11-13T07:14:42.803Z,9.10
2022-11-13T07:15:42.785Z,9.50
2022-11-13T07:17:07.535Z,9.50
2022-11-13T07:17:42.730Z,10.10
2022-11-13T07:18:42.832Z,9.70
2022-11-13T07:19:42.698Z,9.80
2022-11-13T07:20:42.675Z,9.80
2022-11-13T07:21:42.644Z,9.20
2022-11-13T07:22:42.624Z,10.00
2022-11-13T07:23:42.602Z,9.10
2022-11-13T07:24:42.578Z,9.10
2022-11-13T07:25:42.553Z,9.30
2022-11-13T07:26:42.533Z,9.10
2022-11-13T07:27:42.513Z,9.40
2022-11-13T07:28:42.492Z,9.30
2022-11-13T07:29:42.469Z,9.90
2022-11-13T07:30:42.450Z,9.30
2022-11-13T07:31:42.425Z,9.80
2022-11-13T07:32:42.400Z,8.60
2022-11-13T07:33:42.381Z,9.20
2022-11-13T07:34:42.471Z,9.20
2022-11-13T07:35:42.338Z,8.90
2022-11-13T07:36:42.315Z,9.00
2022-11-13T07:37:42.292Z,9.50
2022-11-13T07:38:42.270Z,9.50
2022-11-13T07:39:42.249Z,9.10
2022-11-13T07:40:42.226Z,9.10
2022-11-13T07:41:42.204Z,8.70
2022-11-13T07:42:42.186Z,8.60
2022-11-13T07:43:42.162Z,9.20
2022-11-13T07:44:54.596Z,9.70
2022-11-13T07:45:42.121Z,8.70
2022-11-13T07:46:42.102Z,9.10
2022-11-13T07:47:42.076Z,8.90
2022-11-13T07:48:42.056Z,9.00
2022-11-13T07:49:42.036Z,9.00
2022-11-13T07:50:42.119Z,9.10
2022-11-13T07:51:41.990Z,8.50
2022-11-13T07:52:41.965Z,9.00
2022-11-13T07:53:41.946Z,8.70
2022-11-13T07:54:41.926Z,7.70
2022-11-13T07:55:41.905Z,7.90
2022-11-13T07:56:41.884Z,8.10
2022-11-13T07:57:41.853Z,8.00
2022-11-13T07:58:41.840Z,8.40
2022-11-13T07:59:41.820Z,7.80
2022-11-13T08:00:41.864Z,7.70
2022-11-13T08:01:41.778Z,7.50
2022-11-13T08:02:41.753Z,7.30
2022-11-13T08:03:41.736Z,7.70
2022-11-13T08:04:41.712Z,6.90
2022-11-13T08:05:41.694Z,7.30
2022-11-13T08:06:41.844Z,7.10
2022-11-13T08:07:41.645Z,7.70
2022-11-13T08:08:41.626Z,7.30
2022-11-13T08:09:41.606Z,7.60
2022-11-13T08:10:41.596Z,7.30
2022-11-13T08:11:41.565Z,8.00
2022-11-13T08:12:41.552Z,7.00
2022-11-13T08:13:41.521Z,7.30
2022-11-13T08:14:41.498Z,7.40
2022-11-13T08:15:41.483Z,7.20
2022-11-13T08:16:41.462Z,7.30
2022-11-13T08:17:41.441Z,7.40
2022-11-13T08:18:41.419Z,7.80
2022-11-13T08:19:41.397Z,7.00
2022-11-13T08:20:41.381Z,7.40
2022-11-13T08:21:41.374Z,6.70
2022-11-13T08:22:41.453Z,6.00
2022-11-13T08:23:41.318Z,6.80
2022-11-13T08:24:41.296Z,6.90
2022-11-13T08:25:41.278Z,7.20
2022-11-13T08:26:41.257Z,6.40
2022-11-13T08:27:41.241Z,7.10
2022-11-13T08:28:41.221Z,7.40
2022-11-13T08:29:41.200Z,7.10
2022-11-13T08:30:41.175Z,7.60
2022-11-13T08:31:41.159Z,7.00
2022-11-13T08:32:41.138Z,7.20
2022-11-13T08:33:41.120Z,6.60
2022-11-13T08:34:41.105Z,8.00
2022-11-13T08:35:41.100Z,14.30
2022-11-13T08:36:41.067Z,18.30
2022-11-13T08:37:41.040Z,10.50
2022-11-13T08:38:41.139Z,12.70
2022-11-13T08:39:41.005Z,10.40
2022-11-13T08:40:40.989Z,10.40
2022-11-13T08:41:40.975Z,10.00
2022-11-13T08:42:40.960Z,8.20
2022-11-13T08:43:40.940Z,7.80
2022-11-13T08:44:40.924Z,7.70
2022-11-13T08:45:40.916Z,7.30
2022-11-13T08:46:40.895Z,7.60
2022-11-13T08:47:40.883Z,7.50
2022-11-13T08:48:40.868Z,6.90
2022-11-13T08:49:40.855Z,6.90
2022-11-13T08:50:40.844Z,7.40
2022-11-13T08:51:40.829Z,7.20
2022-11-13T08:52:40.828Z,6.90
2022-11-13T08:53:40.807Z,7.10
2022-11-13T08:54:40.899Z,7.20
2022-11-13T08:55:40.783Z,6.90
2022-11-13T08:56:40.767Z,7.00
2022-11-13T08:57:40.758Z,7.10
2022-11-13T08:58:40.750Z,7.50
2022-11-13T08:59:40.740Z,6.80
2022-11-13T09:00:40.727Z,6.70
2022-11-13T09:01:40.720Z,6.10
2022-11-13T09:02:40.707Z,6.10
2022-11-13T09:03:40.782Z,6.20
2022-11-13T09:04:40.686Z,6.30
2022-11-13T09:05:40.677Z,5.80
2022-11-13T09:06:40.767Z,6.00
2022-11-13T09:07:40.657Z,6.00
2022-11-13T09:08:40.650Z,7.20
2022-11-13T09:09:40.648Z,7.60
2022-11-13T09:10:40.746Z,13.10
2022-11-13T09:11:40.640Z,13.10
2022-11-13T09:12:40.616Z,13.00
2022-11-13T09:13:44.531Z,10.10
2022-11-13T09:14:40.604Z,8.70
2022-11-13T09:15:40.604Z,10.20
2022-11-13T09:16:40.591Z,10.10
2022-11-13T09:17:40.581Z,6.60
2022-11-13T09:18:40.571Z,5.90
2022-11-13T09:19:40.562Z,5.90
2022-11-13T09:20:40.558Z,5.40
2022-11-13T09:21:40.551Z,5.40
2022-11-13T09:22:40.537Z,5.10
2022-11-13T09:23:40.533Z,5.20
2022-11-13T09:24:40.530Z,5.30
2022-11-13T09:25:40.520Z,5.80
2022-11-13T09:26:40.620Z,5.20
2022-11-13T09:27:40.508Z,5.00
2022-11-13T09:28:40.499Z,5.10
2022-11-13T09:29:40.495Z,4.90
2022-11-13T09:30:40.493Z,5.00
2022-11-13T09:31:40.491Z,5.00
2022-11-13T09:32:40.477Z,5.00
2022-11-13T09:33:40.464Z,5.70
2022-11-13T09:34:40.458Z,4.80
2022-11-13T09:35:40.451Z,4.90
2022-11-13T09:36:40.448Z,5.00
2022-11-13T09:37:40.441Z,4.60
2022-11-13T09:38:40.442Z,5.00
2022-11-13T09:39:40.426Z,4.60
2022-11-13T09:40:40.415Z,4.90
2022-11-13T09:41:40.415Z,5.00
2022-11-13T09:42:40.523Z,5.30
2022-11-13T09:43:40.400Z,4.50
2022-11-13T09:44:40.391Z,4.40
2022-11-13T09:45:40.387Z,4.50
2022-11-13T09:46:40.378Z,4.90
2022-11-13T09:47:40.375Z,5.30
2022-11-13T09:48:40.369Z,20.90
2022-11-13T09:49:40.361Z,25.40
2022-11-13T09:50:40.359Z,12.40
2022-11-13T09:51:40.351Z,7.80
2022-11-13T09:52:40.342Z,6.00
2022-11-13T09:53:40.334Z,5.10
2022-11-13T09:54:40.327Z,4.70
2022-11-13T09:55:40.324Z,4.70
2022-11-13T09:56:40.318Z,5.00
2022-11-13T09:57:40.307Z,4.40
2022-11-13T09:58:40.418Z,4.60
2022-11-13T09:59:40.294Z,4.40
2022-11-13T10:00:40.344Z,4.40
2022-11-13T10:01:40.284Z,4.60
2022-11-13T10:02:40.282Z,4.70
2022-11-13T10:04:04.239Z,4.60
2022-11-13T10:04:40.264Z,4.80
2022-11-13T10:05:40.258Z,4.60
2022-11-13T10:06:40.338Z,4.70
2022-11-13T10:07:40.242Z,4.80
2022-11-13T10:08:40.236Z,4.10
2022-11-13T10:09:40.232Z,4.90
2022-11-13T10:10:40.223Z,4.60
2022-11-13T10:11:40.216Z,4.20
2022-11-13T10:12:40.209Z,4.10
2022-11-13T10:13:40.203Z,4.50
2022-11-13T10:14:40.304Z,4.30
2022-11-13T10:15:40.191Z,3.40
2022-11-13T10:16:40.191Z,4.30
2022-11-13T10:17:40.175Z,4.10
2022-11-13T10:18:40.181Z,4.00
2022-11-13T10:19:40.162Z,4.50
2022-11-13T10:20:40.151Z,4.20
2022-11-13T10:21:40.145Z,4.40
2022-11-13T10:22:40.138Z,3.80
2022-11-13T10:23:40.128Z,4.00
2022-11-13T10:24:40.123Z,4.10
2022-11-13T10:25:40.120Z,4.00
2022-11-13T10:26:40.109Z,4.20
2022-11-13T10:27:40.212Z,4.40
2022-11-13T10:28:55.515Z,3.90
2022-11-13T10:29:44.662Z,3.90
2022-11-13T10:30:40.193Z,3.50
2022-11-13T10:31:40.075Z,3.60
2022-11-13T10:32:40.070Z,4.30
2022-11-13T10:33:40.064Z,3.80
2022-11-13T10:34:40.053Z,3.90
2022-11-13T10:35:40.048Z,4.10
2022-11-13T10:36:40.039Z,3.90
2022-11-13T10:37:40.036Z,3.50
2022-11-13T10:38:40.029Z,3.80
2022-11-13T10:39:40.014Z,4.60
2022-11-13T10:40:40.007Z,34.60
2022-11-13T10:41:40.003Z,17.00
2022-11-13T10:42:39.994Z,4.30
2022-11-13T10:43:39.983Z,4.50
2022-11-13T10:44:39.982Z,4.20
2022-11-13T10:45:39.978Z,3.90
2022-11-13T10:46:40.077Z,3.70
2022-11-13T10:48:03.306Z,3.70
2022-11-13T10:48:39.958Z,3.30
2022-11-13T10:49:39.943Z,3.60
2022-11-13T10:50:39.932Z,3.80
2022-11-13T10:51:39.928Z,3.60
2022-11-13T10:52:39.918Z,3.80
2022-11-13T10:53:39.905Z,3.70
2022-11-13T10:54:39.903Z,3.20
2022-11-13T10:55:39.890Z,3.50
2022-11-13T10:56:39.888Z,3.10
2022-11-13T10:57:39.881Z,3.50
2022-11-13T10:58:39.885Z,3.60
2022-11-13T10:59:39.871Z,3.70
2022-11-13T11:00:39.858Z,3.30
2022-11-13T11:01:39.973Z,3.60
2022-11-13T11:02:39.956Z,3.60
2022-11-13T11:03:39.829Z,3.40
2022-11-13T11:04:39.819Z,3.40
2022-11-13T11:05:39.812Z,3.50
2022-11-13T11:07:17.814Z,3.50
2022-11-13T11:07:39.820Z,4.10
2022-11-13T11:08:39.786Z,3.80
2022-11-13T11:09:39.777Z,3.40
2022-11-13T11:10:39.769Z,3.60
2022-11-13T11:11:39.780Z,3.30
2022-11-13T11:12:39.754Z,3.90
2022-11-13T11:13:39.753Z,9.30
2022-11-13T11:14:39.739Z,4.90
2022-11-13T11:15:39.736Z,7.10
2022-11-13T11:16:39.719Z,6.30
2022-11-13T11:17:39.732Z,4.70
2022-11-13T11:18:39.819Z,4.20
2022-11-13T11:19:39.700Z,4.20
2022-11-13T11:20:39.689Z,4.20
2022-11-13T11:21:39.680Z,3.40
2022-11-13T11:22:39.672Z,3.90
2022-11-13T11:23:39.662Z,3.30
2022-11-13T11:24:39.650Z,3.70
2022-11-13T11:25:39.643Z,3.50
2022-11-13T11:26:39.632Z,3.40
2022-11-13T11:27:39.629Z,3.80
2022-11-13T11:28:39.617Z,3.50
2022-11-13T11:29:39.609Z,3.50
2022-11-13T11:30:39.600Z,3.30
2022-11-13T11:31:39.596Z,3.50
2022-11-13T11:32:39.586Z,3.50
2022-11-13T11:33:39.578Z,3.40
2022-11-13T11:34:39.681Z,4.00
2022-11-13T11:35:39.561Z,4.10
2022-11-13T11:36:39.551Z,3.30
2022-11-13T11:37:39.547Z,4.00
2022-11-13T11:38:39.536Z,3.70
2022-11-13T11:39:39.525Z,3.60
2022-11-13T11:40:39.513Z,3.50
2022-11-13T11:41:39.508Z,3.50
2022-11-13T11:42:39.500Z,3.30
2022-11-13T11:43:39.490Z,3.50
2022-11-13T11:44:39.488Z,3.50
2022-11-13T11:45:39.476Z,4.00
2022-11-13T11:46:42.749Z,3.60
2022-11-13T11:47:39.472Z,3.70
2022-11-13T11:48:39.448Z,3.70
2022-11-13T11:49:39.443Z,3.40
2022-11-13T11:50:39.549Z,3.20
2022-11-13T11:51:39.427Z,3.20
2022-11-13T11:52:39.429Z,3.50
2022-11-13T11:53:39.413Z,3.30
2022-11-13T11:54:39.404Z,3.60
2022-11-13T11:55:39.393Z,3.50
2022-11-13T11:56:39.381Z,3.40
2022-11-13T11:57:39.374Z,3.30
2022-11-13T11:58:39.371Z,3.20
2022-11-13T11:59:39.377Z,3.30
2022-11-13T12:00:39.349Z,3.50
2022-11-13T12:01:39.341Z,3.30
2022-11-13T12:02:39.332Z,3.20
2022-11-13T12:03:39.325Z,3.40
2022-11-13T12:04:39.412Z,3.70
2022-11-13T12:05:39.394Z,3.20
2022-11-13T12:06:39.455Z,3.30
2022-11-13T12:07:39.294Z,3.30
2022-11-13T12:08:39.283Z,3.30
2022-11-13T12:09:39.292Z,3.30
2022-11-13T12:10:39.269Z,3.50
2022-11-13T12:11:39.262Z,3.60
2022-11-13T12:12:39.255Z,3.00
2022-11-13T12:13:39.243Z,3.00
2022-11-13T12:14:39.237Z,2.80
2022-11-13T12:15:39.228Z,2.90
2022-11-13T12:16:39.219Z,3.20
2022-11-13T12:17:39.215Z,3.30
2022-11-13T12:18:39.200Z,3.20
2022-11-13T12:19:39.211Z,3.20
2022-11-13T12:20:39.193Z,2.90
2022-11-13T12:21:39.177Z,14.30
2022-11-13T12:22:39.278Z,9.40
2022-11-13T12:23:39.158Z,4.20
2022-11-13T12:24:39.151Z,3.50
2022-11-13T12:25:39.140Z,3.20
2022-11-13T12:26:39.137Z,3.10
2022-11-13T12:27:39.128Z,5.20
2022-11-13T12:28:41.198Z,4.00
2022-11-13T12:29:39.124Z,3.00
2022-11-13T12:30:39.103Z,3.30
2022-11-13T12:31:39.101Z,2.70
2022-11-13T12:32:39.086Z,3.20
2022-11-13T12:33:39.105Z,3.00
2022-11-13T12:34:39.067Z,2.90
2022-11-13T12:35:39.063Z,2.80
2022-11-13T12:36:39.052Z,2.90
2022-11-13T12:37:39.044Z,2.70
2022-11-13T12:38:39.147Z,2.60
2022-11-13T12:39:39.024Z,3.20
2022-11-13T12:40:44.271Z,2.90
2022-11-13T12:41:39.007Z,2.90
2022-11-13T12:42:38.999Z,2.90
2022-11-13T12:43:38.990Z,3.00
2022-11-13T12:44:38.980Z,2.60
2022-11-13T12:45:38.992Z,2.80
2022-11-13T12:46:38.963Z,2.60
2022-11-13T12:47:38.954Z,2.60
2022-11-13T12:48:38.944Z,2.50
2022-11-13T12:49:38.938Z,2.90
2022-11-13T12:50:38.929Z,2.90
2022-11-13T12:51:38.919Z,2.50
2022-11-13T12:52:38.917Z,2.70
2022-11-13T12:53:38.899Z,2.50
2022-11-13T12:54:39.011Z,2.40
2022-11-13T12:55:38.882Z,2.50
2022-11-13T12:56:38.875Z,2.70
2022-11-13T12:57:38.864Z,3.10
2022-11-13T12:58:38.859Z,2.60
2022-11-13T12:59:38.849Z,2.50
2022-11-13T13:00:38.843Z,2.60
2022-11-13T13:01:38.957Z,2.50
2022-11-13T13:02:38.822Z,2.20
2022-11-13T13:03:38.814Z,2.70
2022-11-13T13:04:38.809Z,2.80
2022-11-13T13:05:38.792Z,2.60